Time;durP1;ratioP1;P1;durP2;ratioP2;P2;SDS_P1;SDS_P2;PMS_P1;PMS_P2;Temp;Humidity;BMP_temperature;BMP_pressure;BME280_temperature;BME280_humidity;BME280_pressure;Samples;Min_cycle;Max_cycle;Signal;HPM_P1;HPM_P2
2023/07/06 00:00:31;;;;;;;4.80;3.60;;;;;;;18.41;53.89;96830.41;10338755;28;20023;-29
2023/07/06 00:05:32;;;;;;;5.50;3.60;;;;;;;18.31;53.96;96833.75;10337818;28;20856;-30
2023/07/06 00:10:33;;;;;;;4.25;3.72;;;;;;;18.22;54.07;96834.56;10328395;28;20038;-29
2023/07/06 00:15:34;;;;;;;6.22;3.65;;;;;;;18.18;54.34;96822.69;10307776;28;20038;-29
2023/07/06 00:20:38;;;;;;;6.10;3.50;;;;;;;18.28;53.92;96828.66;10322536;28;20402;-29
2023/07/06 00:25:42;;;;;;;6.05;3.70;;;;;;;18.02;54.52;96830.25;10323949;28;20038;-29
2023/07/06 00:35:46;;;;;;;5.43;4.18;;;;;;;18.01;53.94;96833.66;10341442;28;20115;-30
2023/07/06 00:40:49;;;;;;;4.07;3.60;;;;;;;18.25;53.66;96833.72;10364864;28;20121;-29
2023/07/06 00:46:09;;;;;;;5.55;4.10;;;;;;;18.04;54.17;96823.50;10347608;28;20480;-30
2023/07/06 00:51:16;;;;;;;5.60;3.50;;;;;;;18.01;54.36;96819.28;10329101;28;20049;-29
2023/07/06 00:56:20;;;;;;;6.10;4.25;;;;;;;17.98;54.32;96818.44;10337947;28;20023;-30
2023/07/06 01:01:23;;;;;;;6.00;4.25;;;;;;;17.79;54.80;96822.59;10337307;28;20447;-29
2023/07/06 01:06:36;;;;;;;7.68;4.22;;;;;;;17.76;54.35;96822.56;10307023;28;20159;-29
2023/07/06 01:11:37;;;;;;;6.00;4.13;;;;;;;17.75;54.70;96823.41;10299818;28;20030;-30
2023/07/06 01:16:57;;;;;;;6.68;4.00;;;;;;;17.86;54.85;96823.44;10300182;28;20081;-31
2023/07/06 01:22:23;;;;;;;6.07;4.70;;;;;;;17.68;54.72;96821.66;10321408;28;20059;-29
2023/07/06 01:27:42;;;;;;;5.47;4.38;;;;;;;17.68;54.90;96820.84;10294182;28;20054;-30
2023/07/06 01:32:48;;;;;;;5.00;3.92;;;;;;;17.61;55.58;96816.59;10350862;28;20119;-29
2023/07/06 01:37:51;;;;;;;8.13;5.05;;;;;;;17.68;55.04;96811.53;10315609;28;20070;-29
2023/07/06 01:42:51;;;;;;;6.85;4.55;;;;;;;17.56;55.07;96818.25;10307084;28;20491;-29
2023/07/06 01:48:13;;;;;;;6.43;4.80;;;;;;;17.69;55.03;96814.94;10306733;28;20050;-30
2023/07/06 01:53:40;;;;;;;6.90;4.68;;;;;;;17.55;55.54;96814.00;10324090;28;20793;-30
2023/07/06 01:59:00;;;;;;;8.53;4.73;;;;;;;17.34;55.79;96813.88;10317977;28;20023;-30
2023/07/06 02:04:03;;;;;;;6.32;4.65;;;;;;;17.39;55.85;96814.75;10329275;28;20049;-29
2023/07/06 02:09:05;;;;;;;5.72;3.72;;;;;;;17.35;56.20;96807.97;10304021;28;20031;-30
2023/07/06 02:14:05;;;;;;;4.90;3.97;;;;;;;17.45;55.62;96809.75;10329013;28;20042;-30
2023/07/06 02:19:06;;;;;;;5.72;4.22;;;;;;;17.40;56.04;96808.91;10316615;28;20026;-29
2023/07/06 02:24:09;;;;;;;6.90;4.37;;;;;;;17.49;55.54;96806.41;10327144;28;20441;-29
2023/07/06 02:29:10;;;;;;;7.45;4.55;;;;;;;17.38;55.54;96808.88;10313782;28;20559;-31
2023/07/06 02:34:10;;;;;;;7.50;4.60;;;;;;;17.23;55.65;96803.69;10327728;28;20169;-29
2023/07/06 02:39:11;;;;;;;5.50;4.22;;;;;;;17.33;55.52;96797.00;10312822;28;20038;-30
2023/07/06 02:44:11;;;;;;;5.60;3.97;;;;;;;17.24;55.74;96789.38;10331505;28;20419;-30
2023/07/06 02:49:12;;;;;;;7.50;4.70;;;;;;;17.18;55.77;96784.25;10311880;28;20308;-29
2023/07/06 02:54:15;;;;;;;5.72;4.55;;;;;;;17.02;55.62;96778.28;10314467;28;20054;-30
2023/07/06 02:59:15;;;;;;;4.93;4.43;;;;;;;17.02;55.77;96787.53;10326981;28;20034;-30
2023/07/06 03:04:17;;;;;;;7.07;4.70;;;;;;;17.03;56.41;96779.09;10313150;28;20034;-30
2023/07/06 03:09:17;;;;;;;5.90;4.55;;;;;;;17.19;55.34;96781.75;10316564;28;20296;-29
2023/07/06 03:14:21;;;;;;;6.80;4.80;;;;;;;17.35;54.86;96777.59;10334449;28;20038;-30
2023/07/06 03:19:22;;;;;;;5.88;4.47;;;;;;;17.08;55.72;96787.56;10326259;28;20320;-29
2023/07/06 03:24:23;;;;;;;7.82;4.95;;;;;;;16.95;56.33;96786.66;10323429;28;20417;-29
2023/07/06 03:29:24;;;;;;;7.80;4.40;;;;;;;16.80;56.83;96773.88;10330557;28;20035;-29
2023/07/06 03:34:24;;;;;;;7.30;4.35;;;;;;;16.90;56.65;96773.09;10326604;28;20034;-29
2023/07/06 03:39:25;;;;;;;5.15;3.97;;;;;;;17.15;55.72;96789.31;10330436;28;20095;-30
2023/07/06 03:44:26;;;;;;;5.85;4.18;;;;;;;17.23;55.66;96782.63;10331456;28;20120;-30
2023/07/06 03:49:26;;;;;;;5.53;4.82;;;;;;;17.25;55.24;96781.75;10300008;28;20026;-30
2023/07/06 03:54:26;;;;;;;5.88;4.32;;;;;;;17.26;55.07;96782.63;10326668;28;20034;-30
2023/07/06 03:59:31;;;;;;;7.50;4.70;;;;;;;17.18;55.20;96789.31;10333809;28;20522;-30
2023/07/06 04:04:33;;;;;;;5.82;4.85;;;;;;;17.15;55.73;96786.78;10328398;28;20566;-29
2023/07/06 04:09:36;;;;;;;7.63;4.75;;;;;;;17.06;55.87;96799.38;10315203;28;20090;-29
2023/07/06 04:14:36;;;;;;;6.55;4.80;;;;;;;17.07;55.65;96793.47;10297528;28;20035;-30
2023/07/06 04:19:37;;;;;;;6.47;3.87;;;;;;;17.08;56.03;96807.81;10295774;28;20038;-30
2023/07/06 04:24:37;;;;;;;10.80;4.65;;;;;;;17.20;56.17;96803.69;10303320;28;20570;-29
2023/07/06 04:29:37;;;;;;;7.07;4.97;;;;;;;17.96;54.18;96804.91;10313770;28;20050;-30
2023/07/06 04:34:39;;;;;;;7.57;4.30;;;;;;;18.27;53.42;96796.56;10311161;28;20035;-30
2023/07/06 04:39:42;;;;;;;7.07;5.00;;;;;;;18.39;53.03;96786.47;10313845;28;20029;-29
2023/07/06 04:44:43;;;;;;;5.43;3.97;;;;;;;18.53;52.98;96794.94;10309065;28;20108;-31
2023/07/06 04:49:47;;;;;;;8.05;4.60;;;;;;;18.60;52.95;96797.47;10302659;28;20030;-30
2023/07/06 04:54:50;;;;;;;7.22;4.65;;;;;;;18.71;52.84;96805.09;10306767;28;20117;-30
2023/07/06 04:59:51;;;;;;;8.43;5.05;;;;;;;18.74;53.00;96798.31;10311983;28;20113;-30
2023/07/06 05:04:51;;;;;;;6.97;4.43;;;;;;;18.70;53.33;96803.41;10302756;28;20034;-29
2023/07/06 05:09:52;;;;;;;6.63;4.33;;;;;;;18.79;53.22;96795.78;10302572;28;20038;-29
2023/07/06 05:14:52;;;;;;;4.85;4.28;;;;;;;18.92;53.04;96792.41;10304047;28;20089;-32
2023/07/06 05:19:53;;;;;;;6.33;4.83;;;;;;;18.98;52.81;96805.06;10321952;28;20033;-29
2023/07/06 05:24:53;;;;;;;9.68;4.68;;;;;;;18.95;53.03;96808.47;10324441;28;20669;-29
2023/07/06 05:29:54;;;;;;;6.22;4.35;;;;;;;18.96;53.23;96806.78;10306654;28;20042;-29
2023/07/06 05:34:54;;;;;;;5.73;4.47;;;;;;;19.00;53.16;96798.34;10295077;28;20027;-30
2023/07/06 05:39:55;;;;;;;6.45;5.45;;;;;;;19.05;53.15;96801.69;10313532;28;20376;-29
2023/07/06 05:44:55;;;;;;;7.80;4.33;;;;;;;19.08;53.08;96802.53;10304478;28;20034;-29
2023/07/06 05:49:55;;;;;;;5.67;4.30;;;;;;;19.12;53.16;96808.47;10322219;28;20303;-30
2023/07/06 05:54:56;;;;;;;5.18;4.25;;;;;;;19.12;53.22;96814.38;10329814;28;20352;-30
2023/07/06 05:59:56;;;;;;;6.93;3.93;;;;;;;19.16;53.03;96821.13;10298784;28;20035;-29
2023/07/06 06:04:57;;;;;;;6.68;3.80;;;;;;;19.17;52.99;96825.38;10320254;28;20320;-30
2023/07/06 06:09:58;;;;;;;6.03;4.05;;;;;;;19.23;53.34;96832.16;10331081;28;20047;-29
2023/07/06 06:14:59;;;;;;;7.60;3.72;;;;;;;19.37;53.16;96828.78;10311401;28;20036;-30
2023/07/06 06:19:59;;;;;;;6.50;4.22;;;;;;;19.39;53.11;96838.91;10329443;28;20406;-30
2023/07/06 06:25:00;;;;;;;5.40;3.90;;;;;;;19.31;53.11;96830.44;10320162;28;20399;-30
2023/07/06 06:30:01;;;;;;;7.38;4.57;;;;;;;19.29;53.16;96827.06;10305500;28;20034;-29
2023/07/06 06:35:02;;;;;;;6.28;3.95;;;;;;;19.28;53.30;96827.94;10313304;28;20035;-30
2023/07/06 06:40:03;;;;;;;4.57;3.67;;;;;;;19.29;53.21;96822.00;10320283;28;20491;-30
2023/07/06 06:45:07;;;;;;;5.07;3.55;;;;;;;19.28;53.33;96820.31;10335398;28;20044;-29
2023/07/06 06:50:09;;;;;;;4.72;3.55;;;;;;;19.30;53.36;96823.69;10335389;28;20038;-30
2023/07/06 06:55:10;;;;;;;5.75;3.95;;;;;;;19.30;53.39;96828.75;10312138;28;20030;-30
2023/07/06 07:00:14;;;;;;;5.35;4.15;;;;;;;19.31;53.46;96815.22;10333878;28;20030;-29
2023/07/06 07:05:15;;;;;;;4.55;3.80;;;;;;;19.33;53.55;96821.16;10319802;28;20510;-30
2023/07/06 07:10:16;;;;;;;5.70;3.70;;;;;;;19.46;53.55;96812.66;10318637;28;20486;-30
2023/07/06 07:15:16;;;;;;;7.50;4.10;;;;;;;19.57;53.36;96813.47;10328570;28;20041;-29
2023/07/06 07:20:18;;;;;;;5.23;4.00;;;;;;;19.54;53.41;96811.81;10326248;28;20038;-29
2023/07/06 07:25:19;;;;;;;5.25;3.85;;;;;;;19.46;53.37;96816.06;10308858;28;20769;-30
2023/07/06 07:30:20;;;;;;;5.90;4.10;;;;;;;19.42;53.52;96803.38;10312256;28;20034;-30
2023/07/06 07:35:21;;;;;;;3.72;3.30;;;;;;;19.41;53.68;96817.75;10324964;28;20128;-29
2023/07/06 07:40:23;;;;;;;5.03;3.80;;;;;;;19.39;53.63;96808.44;10318871;28;20039;-29
2023/07/06 07:45:24;;;;;;;4.80;3.58;;;;;;;19.39;53.83;96798.28;10329183;28;20043;-30
2023/07/06 07:50:24;;;;;;;3.87;3.40;;;;;;;19.40;53.57;96800.81;10312512;28;20522;-30
2023/07/06 07:55:25;;;;;;;3.88;3.03;;;;;;;19.41;53.56;96789.81;10316838;28;20041;-30
2023/07/06 08:00:25;;;;;;;4.10;3.57;;;;;;;19.42;53.84;96803.38;10338827;28;20031;-30
2023/07/06 08:05:25;;;;;;;5.07;3.50;;;;;;;19.42;53.76;96803.38;10343638;28;20293;-30
2023/07/06 08:10:26;;;;;;;4.20;3.37;;;;;;;19.59;53.71;96806.72;10324308;28;20309;-29
2023/07/06 08:15:27;;;;;;;4.17;3.70;;;;;;;19.67;53.70;96810.91;10316398;28;20305;-30
2023/07/06 08:20:28;;;;;;;4.03;3.35;;;;;;;19.62;54.28;96816.84;10309050;28;20381;-30
2023/07/06 08:25:33;;;;;;;3.53;3.08;;;;;;;19.55;53.41;96815.16;10320402;28;20051;-30
2023/07/06 08:30:35;;;;;;;4.70;3.50;;;;;;;19.51;53.88;96818.59;10364330;28;20034;-30
2023/07/06 08:35:44;;;;;;;3.47;3.00;;;;;;;19.49;53.91;96818.56;10321263;28;20516;-30
2023/07/06 08:40:52;;;;;;;3.85;3.45;;;;;;;19.49;53.90;96821.13;10341471;28;20042;-29
2023/07/06 08:46:00;;;;;;;4.28;3.45;;;;;;;19.49;53.96;96820.28;10331530;28;20101;-30
2023/07/06 08:51:09;;;;;;;3.53;2.95;;;;;;;19.50;54.00;96827.06;10328500;28;20419;-30
2023/07/06 08:56:14;;;;;;;4.20;3.15;;;;;;;19.49;54.15;96826.19;10304998;28;20031;-30
2023/07/06 09:01:23;;;;;;;3.80;3.08;;;;;;;19.48;54.07;96814.34;10330944;28;20113;-30
2023/07/06 09:06:26;;;;;;;5.15;3.40;;;;;;;19.59;54.30;96821.94;10318107;28;20035;-29
2023/07/06 09:11:28;;;;;;;4.65;3.63;;;;;;;19.73;54.11;96825.28;10335827;28;20100;-31
2023/07/06 09:16:28;;;;;;;7.50;3.83;;;;;;;19.74;53.91;96824.41;10314145;28;20034;-29
2023/07/06 09:21:30;;;;;;;4.82;3.45;;;;;;;19.66;53.88;96824.44;10326479;28;20046;-30
2023/07/06 09:26:33;;;;;;;4.70;3.30;;;;;;;19.59;54.08;96816.88;10320897;28;20045;-30
2023/07/06 09:31:34;;;;;;;4.20;3.30;;;;;;;19.57;54.25;96819.41;10329156;28;20034;-30
2023/07/06 09:36:36;;;;;;;3.65;3.13;;;;;;;19.56;54.29;96821.94;10332676;28;20045;-30
2023/07/06 09:41:43;;;;;;;3.60;3.13;;;;;;;19.55;54.35;96822.78;10323075;28;20150;-30
2023/07/06 09:46:44;;;;;;;4.38;3.33;;;;;;;19.54;54.10;96819.41;10323047;28;20041;-30
2023/07/06 09:51:50;;;;;;;5.00;3.25;;;;;;;19.53;54.41;96814.34;10318971;28;20031;-30
2023/07/06 09:56:50;;;;;;;5.80;3.20;;;;;;;19.55;54.71;96817.72;10331647;28;20026;-30
2023/07/06 10:02:23;;;;;;;7.32;4.55;;;;;;;19.57;54.60;96818.53;10338251;28;20040;-29
2023/07/06 10:07:30;;;;;;;4.88;3.50;;;;;;;19.73;54.39;96815.97;10315133;28;20089;-29
2023/07/06 10:12:46;;;;;;;4.88;3.70;;;;;;;19.83;54.55;96817.63;10320003;28;20046;-30
2023/07/06 10:17:56;;;;;;;5.77;3.17;;;;;;;19.77;54.51;96811.72;10324268;28;20042;-30
2023/07/06 10:23:12;;;;;;;7.20;4.28;;;;;;;19.66;54.50;96818.53;10335903;28;20417;-29
2023/07/06 10:28:22;;;;;;;12.67;6.50;;;;;;;19.65;54.75;96816.81;10305144;28;20467;-30
2023/07/06 10:33:33;;;;;;;13.38;7.43;;;;;;;19.63;54.78;96816.84;10305497;28;20042;-30
2023/07/06 10:38:33;;;;;;;7.90;5.80;;;;;;;19.60;54.90;96813.47;10344629;28;20073;-30
2023/07/06 10:43:34;;;;;;;8.98;5.75;;;;;;;19.62;54.92;96801.59;10329863;28;20187;-30
2023/07/06 10:48:34;;;;;;;8.53;5.37;;;;;;;19.61;54.64;96810.09;10293744;28;20051;-29
2023/07/06 10:53:36;;;;;;;11.07;5.15;;;;;;;19.62;55.15;96815.16;10310441;28;20293;-29
2023/07/06 10:58:48;;;;;;;9.95;6.30;;;;;;;19.61;55.20;96810.91;10306162;28;20490;-32
2023/07/06 11:03:49;;;;;;;54.55;27.88;;;;;;;19.78;55.60;96808.34;10337600;28;20401;-33
2023/07/06 11:09:10;;;;;;;66.03;34.13;;;;;;;19.91;55.56;96810.00;10342611;28;20318;-30
2023/07/06 11:14:34;;;;;;;51.88;26.95;;;;;;;19.87;55.56;96809.16;10325811;28;20402;-30
2023/07/06 11:19:38;;;;;;;26.08;14.50;;;;;;;19.75;56.26;96799.03;10313379;28;20031;-30
2023/07/06 11:24:48;;;;;;;41.67;23.17;;;;;;;19.73;55.80;96804.94;10333814;28;20042;-29
2023/07/06 11:29:54;;;;;;;27.05;16.77;;;;;;;19.69;56.22;96808.38;10328821;28;20049;-29
2023/07/06 11:35:16;;;;;;;27.40;15.90;;;;;;;19.68;56.18;96806.69;10313972;28;20038;-30
2023/07/06 11:40:35;;;;;;;25.00;15.80;;;;;;;19.69;56.19;96805.81;10293544;28;20034;-30
2023/07/06 11:45:50;;;;;;;35.05;17.65;;;;;;;19.68;56.36;96806.69;10303122;28;20049;-29
2023/07/06 11:50:50;;;;;;;28.23;18.15;;;;;;;19.68;56.05;96806.69;10310659;28;20041;-30
2023/07/06 11:55:54;;;;;;;37.17;20.70;;;;;;;19.68;56.21;96802.44;10322323;28;20026;-30
2023/07/06 12:01:10;;;;;;;45.25;25.88;;;;;;;19.82;55.92;96794.75;10310269;28;20479;-30
2023/07/06 12:06:14;;;;;;;51.67;28.65;;;;;;;19.97;56.03;96799.78;10339944;28;20517;-30
2023/07/06 12:11:21;;;;;;;44.33;25.92;;;;;;;19.93;55.66;96798.09;10335419;28;20396;-30
2023/07/06 12:16:24;;;;;;;43.45;24.25;;;;;;;19.86;55.71;96786.28;10309082;28;20042;-30
2023/07/06 12:21:28;;;;;;;43.08;25.50;;;;;;;19.78;55.88;96790.53;10326381;28;20116;-30
2023/07/06 12:26:30;;;;;;;40.53;23.77;;;;;;;19.79;56.01;96784.59;10318117;28;20035;-30
2023/07/06 12:31:31;;;;;;;33.58;20.17;;;;;;;19.82;56.12;96779.50;10318093;28;20054;-31
2023/07/06 12:36:35;;;;;;;34.13;22.52;;;;;;;19.83;55.89;96782.03;10318815;28;20422;-30
2023/07/06 12:41:37;;;;;;;34.20;22.52;;;;;;;19.83;55.91;96771.88;10301507;28;20027;-30
2023/07/06 12:46:37;;;;;;;36.25;22.52;;;;;;;19.85;56.01;96774.44;10316613;28;20033;-30
2023/07/06 12:51:40;;;;;;;34.77;21.17;;;;;;;19.86;55.96;96786.28;10335187;28;20049;-30
2023/07/06 12:56:40;;;;;;;41.20;25.15;;;;;;;19.90;56.09;96777.78;10329162;28;20277;-29
2023/07/06 13:01:45;;;;;;;41.35;26.38;;;;;;;20.02;55.76;96772.66;10317591;28;20495;-31
2023/07/06 13:06:54;;;;;;;43.17;25.73;;;;;;;20.02;55.75;96770.09;10316760;28;20042;-31
2023/07/06 13:11:59;;;;;;;33.00;20.70;;;;;;;19.94;55.77;96749.81;10328303;28;20415;-30
2023/07/06 13:17:06;;;;;;;31.15;20.85;;;;;;;19.92;56.05;96755.75;10335511;28;20037;-29
2023/07/06 13:22:08;;;;;;;;;;;;;;;19.90;55.80;96747.28;10302637;28;20031;-30
2023/07/06 13:27:13;;;;;;;29.95;21.08;;;;;;;19.88;56.03;96738.84;10325578;28;20375;-30
2023/07/06 13:32:16;;;;;;;32.95;22.90;;;;;;;19.88;56.00;96734.59;10327132;28;20053;-30
2023/07/06 13:37:24;;;;;;;34.80;23.15;;;;;;;19.89;56.02;96735.44;10320389;28;20038;-29
2023/07/06 13:42:25;;;;;;;35.28;23.27;;;;;;;19.90;55.84;96739.66;10315527;28;20066;-29
2023/07/06 13:47:26;;;;;;;38.08;23.70;;;;;;;19.89;56.05;96738.84;10323063;28;20048;-29
2023/07/06 13:52:29;;;;;;;40.55;24.33;;;;;;;19.91;56.15;96724.41;10319201;28;20042;-30
2023/07/06 13:57:30;;;;;;;41.33;26.33;;;;;;;20.08;55.76;96732.00;10321722;28;20400;-30
2023/07/06 14:02:34;;;;;;;41.65;26.45;;;;;;;20.11;55.66;96732.78;10338759;28;20034;-29
2023/07/06 14:07:34;;;;;;;33.78;21.88;;;;;;;20.02;55.76;96726.91;10318637;28;20085;-30
2023/07/06 14:12:35;;;;;;;35.90;23.00;;;;;;;19.96;55.99;96726.94;10344220;28;20038;-32
2023/07/06 14:17:36;;;;;;;33.15;22.42;;;;;;;19.96;55.78;96726.94;10326061;28;20281;-30
2023/07/06 14:22:37;;;;;;;33.45;21.85;;;;;;;19.94;55.92;96728.66;10313848;28;20418;-30
2023/07/06 14:27:37;;;;;;;34.55;22.35;;;;;;;19.93;56.08;96726.97;10304229;28;20487;-30
2023/07/06 14:32:37;;;;;;;32.77;21.67;;;;;;;19.89;56.23;96726.13;10304850;28;20490;-30
2023/07/06 14:37:38;;;;;;;32.10;21.93;;;;;;;19.91;55.95;96731.22;10296196;28;20282;-29
2023/07/06 14:42:39;;;;;;;32.03;21.58;;;;;;;19.88;56.01;96733.75;10319465;28;20109;-30
2023/07/06 14:47:40;;;;;;;28.02;19.95;;;;;;;19.92;56.10;96735.44;10320406;28;20088;-30
2023/07/06 14:52:43;;;;;;;32.43;22.60;;;;;;;20.04;56.04;96720.09;10327396;28;20035;-30
2023/07/06 14:57:44;;;;;;;34.88;23.35;;;;;;;20.16;56.07;96725.13;10320871;28;20328;-30
2023/07/06 15:02:49;;;;;;;34.03;22.98;;;;;;;20.08;55.55;96737.06;10360478;28;20072;-30
2023/07/06 15:07:50;;;;;;;30.27;21.63;;;;;;;20.00;55.80;96728.63;10348790;28;20552;-29
2023/07/06 15:12:50;;;;;;;34.20;22.43;;;;;;;19.97;56.02;96726.06;10319662;28;20034;-30
2023/07/06 15:17:51;;;;;;;33.50;21.55;;;;;;;19.95;56.63;96725.25;10328200;28;20797;-30
2023/07/06 15:22:51;;;;;;;29.63;20.00;;;;;;;19.94;55.87;96723.56;10327674;28;20029;-30
2023/07/06 15:27:51;;;;;;;31.43;20.47;;;;;;;19.94;56.36;96718.47;10334554;28;20465;-31
2023/07/06 15:32:52;;;;;;;29.87;19.30;;;;;;;19.92;56.08;96715.94;10333035;28;20290;-31
2023/07/06 15:37:52;;;;;;;28.83;20.40;;;;;;;19.90;56.21;96711.72;10323115;28;20376;-31
2023/07/06 15:42:53;;;;;;;32.37;21.23;;;;;;;19.92;55.96;96710.84;10311310;28;20042;-30
2023/07/06 15:47:54;;;;;;;30.05;21.45;;;;;;;20.08;56.33;96720.13;10345795;28;20812;-30
2023/07/06 15:52:54;;;;;;;31.53;20.80;;;;;;;20.18;56.30;96711.56;10329092;28;20415;-30
2023/07/06 15:57:57;;;;;;;30.23;20.17;;;;;;;20.17;55.84;96709.88;10324206;28;20272;-30
2023/07/06 16:02:58;;;;;;;27.90;19.90;;;;;;;20.09;56.74;96711.63;10330111;28;20281;-30
2023/07/06 16:07:59;;;;;;;27.45;18.13;;;;;;;20.03;56.44;96706.53;10307096;28;20031;-30
2023/07/06 16:13:00;;;;;;;29.35;19.98;;;;;;;20.02;56.46;96711.66;10323635;28;20027;-30
2023/07/06 16:18:00;;;;;;;27.70;19.27;;;;;;;20.03;56.52;96713.34;10333373;28;20500;-30
2023/07/06 16:23:01;;;;;;;32.73;18.73;;;;;;;20.06;56.77;96710.81;10326017;28;20027;-30
2023/07/06 16:28:02;;;;;;;27.42;18.73;;;;;;;20.03;56.38;96713.34;10317310;28;20038;-29
2023/07/06 16:33:02;;;;;;;31.70;20.23;;;;;;;20.04;56.94;96715.91;10312161;28;20033;-29
2023/07/06 16:38:02;;;;;;;26.67;18.27;;;;;;;20.03;56.63;96720.97;10329012;28;20479;-30
2023/07/06 16:43:03;;;;;;;34.73;21.57;;;;;;;20.11;57.11;96716.72;10305593;28;20454;-30
2023/07/06 16:48:04;;;;;;;31.27;22.00;;;;;;;20.24;57.21;96716.63;10324880;28;20285;-30
2023/07/06 16:53:05;;;;;;;26.17;19.88;;;;;;;20.28;56.82;96725.06;10332984;28;20278;-30
2023/07/06 16:58:05;;;;;;;32.75;20.30;;;;;;;20.17;56.25;96721.75;10331562;28;20030;-30
2023/07/06 17:03:05;;;;;;;28.27;19.98;;;;;;;20.07;56.20;96730.28;10320677;28;20034;-30
2023/07/06 17:08:06;;;;;;;26.27;17.83;;;;;;;20.06;56.57;96731.13;10330142;28;20112;-33
2023/07/06 17:13:07;;;;;;;29.52;18.95;;;;;;;20.04;56.53;96737.91;10304304;28;20290;-29
2023/07/06 17:18:07;;;;;;;28.27;18.35;;;;;;;20.02;56.59;96732.81;10318623;28;20498;-30
2023/07/06 17:23:08;;;;;;;25.80;18.38;;;;;;;20.01;56.63;96737.94;10335480;28;20166;-29
2023/07/06 17:28:08;;;;;;;25.60;17.17;;;;;;;20.02;56.82;96734.53;10310830;28;20035;-30
2023/07/06 17:33:08;;;;;;;24.13;18.33;;;;;;;20.02;56.83;96726.91;10314877;28;20038;-30
2023/07/06 17:38:10;;;;;;;24.60;17.07;;;;;;;20.02;56.76;96740.44;10351203;28;20033;-30
2023/07/06 17:43:10;;;;;;;27.52;16.92;;;;;;;20.23;57.34;96732.72;10299298;28;20361;-30
2023/07/06 17:48:11;;;;;;;25.80;17.27;;;;;;;20.32;56.95;96734.34;10304238;28;20022;-30
2023/07/06 17:53:11;;;;;;;25.90;16.80;;;;;;;20.22;56.90;96736.13;10328844;28;20041;-30
2023/07/06 17:58:19;;;;;;;23.43;16.23;;;;;;;20.12;56.35;96742.13;10327445;28;20361;-29
2023/07/06 18:03:21;;;;;;;27.08;17.05;;;;;;;20.15;57.80;96738.69;10314181;28;20289;-30
2023/07/06 18:08:22;;;;;;;23.52;16.77;;;;;;;20.17;57.59;96731.94;10314187;28;20041;-30
2023/07/06 18:13:22;;;;;;;25.52;16.67;;;;;;;20.18;56.66;96739.53;10337111;28;20053;-29
2023/07/06 18:18:23;;;;;;;21.88;15.23;;;;;;;20.22;56.65;96740.34;10313464;28;20033;-29
2023/07/06 18:23:23;;;;;;;23.27;15.63;;;;;;;20.22;58.50;96740.34;10339347;28;20120;-30
2023/07/06 18:28:23;;;;;;;27.00;15.65;;;;;;;20.23;58.91;96734.41;10341211;28;20034;-31
2023/07/06 18:33:24;;;;;;;27.87;16.20;;;;;;;20.26;58.30;96736.97;10344290;28;20044;-29
2023/07/06 18:38:24;;;;;;;26.52;15.25;;;;;;;20.38;58.18;96752.97;10322214;28;20029;-29
2023/07/06 18:43:26;;;;;;;27.30;16.23;;;;;;;20.36;57.51;96749.56;10302209;28;20096;-29
2023/07/06 18:48:26;;;;;;;20.42;14.32;;;;;;;20.30;57.14;96746.22;10317240;28;20045;-30
2023/07/06 18:53:27;;;;;;;20.67;13.63;;;;;;;20.27;57.12;96748.81;10310380;28;20088;-31
2023/07/06 18:58:27;;;;;;;19.98;13.32;;;;;;;20.25;56.91;96755.59;10295686;28;20034;-30
2023/07/06 19:03:29;;;;;;;22.55;14.75;;;;;;;20.23;57.19;96759.84;10301541;28;20510;-30
2023/07/06 19:08:29;;;;;;;19.48;13.35;;;;;;;20.19;57.03;96759.00;10296831;28;20074;-30
2023/07/06 19:13:31;;;;;;;18.92;13.35;;;;;;;20.22;57.12;96763.25;10308936;28;20133;-32
2023/07/06 19:18:31;;;;;;;17.95;12.77;;;;;;;20.20;57.18;96773.44;10281931;28;20035;-29
2023/07/06 19:23:32;;;;;;;18.45;12.73;;;;;;;20.15;57.07;96774.28;10313574;28;20027;-30
2023/07/06 19:28:32;;;;;;;18.42;13.07;;;;;;;20.17;57.08;96783.59;10312745;28;20044;-30
2023/07/06 19:33:33;;;;;;;19.05;13.75;;;;;;;20.36;58.66;96784.34;10307479;28;20030;-30
2023/07/06 19:38:33;;;;;;;22.48;12.43;;;;;;;20.42;58.38;96787.69;10300248;28;20542;-29
2023/07/06 19:43:33;;;;;;;16.38;12.27;;;;;;;20.30;56.91;96795.41;10300656;28;20043;-30
2023/07/06 19:48:34;;;;;;;18.33;12.20;;;;;;;20.24;57.19;96805.59;10303441;28;20038;-30
2023/07/06 19:53:35;;;;;;;16.52;12.68;;;;;;;20.18;57.22;96810.72;10329204;28;20672;-30
2023/07/06 19:58:36;;;;;;;23.88;14.93;;;;;;;20.18;57.43;96820.06;10315311;28;20505;-30
2023/07/06 20:03:36;;;;;;;22.33;14.38;;;;;;;20.18;57.32;96814.97;10328376;28;20092;-31
2023/07/06 20:08:37;;;;;;;17.67;12.80;;;;;;;20.19;57.87;96821.72;10334236;28;20041;-30
2023/07/06 20:13:39;;;;;;;18.25;10.70;;;;;;;20.13;57.84;96826.84;10329178;28;20289;-30
2023/07/06 20:18:39;;;;;;;11.25;8.43;;;;;;;19.90;56.63;96823.50;10334492;28;20142;-30
2023/07/06 20:23:39;;;;;;;13.33;8.73;;;;;;;20.05;57.15;96823.50;10315648;28;20030;-30
2023/07/06 20:28:40;;;;;;;7.90;5.27;;;;;;;19.81;55.07;96823.56;10319939;28;20381;-30
2023/07/06 20:33:40;;;;;;;7.03;4.13;;;;;;;19.64;53.80;96835.47;10300567;28;20035;-30
2023/07/06 20:38:41;;;;;;;5.32;3.92;;;;;;;19.54;53.85;96839.75;10301292;28;20372;-30
2023/07/06 20:43:41;;;;;;;5.70;4.60;;;;;;;19.35;53.31;96843.13;10301191;28;20038;-29
2023/07/06 20:48:41;;;;;;;6.13;4.30;;;;;;;19.22;53.09;96854.16;10305282;28;20041;-30
2023/07/06 20:53:42;;;;;;;8.00;4.00;;;;;;;19.08;53.25;96844.84;10301367;28;20285;-30
2023/07/06 20:58:42;;;;;;;7.30;4.63;;;;;;;19.16;53.10;96855.84;10300451;28;20286;-29
2023/07/06 21:03:43;;;;;;;5.68;4.47;;;;;;;19.08;53.46;96847.38;10307554;28;20298;-30
2023/07/06 21:08:43;;;;;;;6.43;4.70;;;;;;;19.11;52.60;96850.78;10291801;28;20030;-31
2023/07/06 21:13:44;;;;;;;9.40;4.80;;;;;;;19.10;53.01;96861.75;10299495;28;20038;-30
2023/07/06 21:18:44;;;;;;;7.13;4.82;;;;;;;19.04;53.11;96868.50;10321398;28;20285;-29
2023/07/06 21:23:44;;;;;;;6.30;4.37;;;;;;;19.03;52.46;96871.91;10306494;28;20031;-29
2023/07/06 21:28:45;;;;;;;5.60;4.65;;;;;;;19.02;52.10;96872.75;10306407;28;20297;-30
2023/07/06 21:33:45;;;;;;;5.60;4.40;;;;;;;18.85;52.58;96860.03;10321839;28;20113;-29
2023/07/06 21:38:46;;;;;;;6.33;4.83;;;;;;;18.86;52.81;96855.81;10314368;28;20309;-29
2023/07/06 21:43:47;;;;;;;7.28;4.75;;;;;;;18.86;52.66;96868.50;10312774;28;20678;-29
2023/07/06 21:48:47;;;;;;;6.88;4.47;;;;;;;18.91;52.11;96866.84;10297529;28;20106;-29
2023/07/06 21:53:48;;;;;;;6.03;4.40;;;;;;;18.90;52.41;96862.56;10302221;28;20038;-29
2023/07/06 21:58:49;;;;;;;8.20;4.73;;;;;;;18.80;52.76;96860.88;10291775;28;20729;-30
2023/07/06 22:03:49;;;;;;;7.35;5.45;;;;;;;18.73;52.19;96859.19;10306461;28;20654;-29
2023/07/06 22:08:50;;;;;;;7.55;5.47;;;;;;;18.71;52.28;96865.94;10304354;28;20046;-29
2023/07/06 22:13:51;;;;;;;7.43;4.95;;;;;;;18.65;52.28;96865.94;10304488;28;20058;-30
2023/07/06 22:18:51;;;;;;;5.57;4.45;;;;;;;18.68;52.30;96871.84;10311794;28;20081;-29
2023/07/06 22:23:52;;;;;;;5.85;4.40;;;;;;;18.64;52.27;96876.91;10297564;28;20361;-29
2023/07/06 22:28:54;;;;;;;7.28;5.15;;;;;;;18.52;52.45;96864.22;10305383;28;20511;-30
2023/07/06 22:33:54;;;;;;;7.15;5.30;;;;;;;18.56;52.90;96865.91;10311708;28;20046;-30
2023/07/06 22:38:54;;;;;;;8.43;4.20;;;;;;;18.50;52.72;96866.75;10296279;28;20106;-29
2023/07/06 22:43:55;;;;;;;9.90;5.20;;;;;;;18.45;53.07;96865.06;10296704;28;20301;-30
2023/07/06 22:49:01;;;;;;;6.93;4.80;;;;;;;18.39;53.01;96867.56;10295449;28;20316;-30
2023/07/06 22:54:02;;;;;;;5.70;4.50;;;;;;;18.49;52.86;96862.53;10288495;28;20042;-29
2023/07/06 22:59:02;;;;;;;6.47;5.20;;;;;;;18.44;52.85;96863.38;10304366;28;20038;-29
2023/07/06 23:04:03;;;;;;;8.00;5.27;;;;;;;18.40;53.23;96861.69;10296552;28;20066;-29
2023/07/06 23:09:06;;;;;;;6.63;4.43;;;;;;;18.51;52.96;96862.53;10303450;28;20364;-30
2023/07/06 23:14:09;;;;;;;5.75;4.28;;;;;;;18.28;53.12;96859.06;10287463;28;20045;-30
2023/07/06 23:19:09;;;;;;;7.45;4.38;;;;;;;18.38;53.19;96860.81;10295358;28;20241;-29